Time;durP1;ratioP1;P1;durP2;ratioP2;P2;SDS_P1;SDS_P2;PMS_P1;PMS_P2;Temp;Humidity;BMP_temperature;BMP_pressure;BME280_temperature;BME280_humidity;BME280_pressure;Samples;Min_cycle;Max_cycle;Signal;HPM_P1;HPM_P2
2021/07/19 06:47:42;;;;;;;1.90;0.98;;;;;;;26.98;51.81;102116.94;5068924;28;20521;-64
2021/07/19 06:50:09;;;;;;;5.75;1.10;;;;;;;27.03;51.56;102119.88;5022348;28;20037;-63
2021/07/19 06:52:36;;;;;;;3.00;0.93;;;;;;;27.02;51.54;102119.06;5026516;28;20052;-63
2021/07/19 06:55:04;;;;;;;2.28;1.00;;;;;;;27.00;51.43;102120.28;5027081;28;20037;-63
2021/07/19 06:57:29;;;;;;;5.07;1.30;;;;;;;26.97;51.25;102120.69;5028650;28;20132;-63
2021/07/19 06:59:55;;;;;;;2.38;0.98;;;;;;;26.93;51.10;102119.47;5029020;28;20172;-65
2021/07/19 07:02:20;;;;;;;2.33;1.08;;;;;;;26.92;50.89;102123.22;5028441;28;20473;-65
2021/07/19 07:04:46;;;;;;;7.57;2.15;;;;;;;26.89;51.10;102129.03;5028716;28;20467;-65
2021/07/19 07:07:11;;;;;;;10.98;3.20;;;;;;;26.87;50.96;102121.16;5031696;28;20038;-63
2021/07/19 07:09:37;;;;;;;15.73;3.67;;;;;;;26.86;51.05;102125.72;5049489;28;20041;-63
2021/07/19 07:12:04;;;;;;;15.07;3.83;;;;;;;26.86;50.96;102125.72;5028557;28;20041;-63
2021/07/19 07:14:29;;;;;;;10.50;2.72;;;;;;;26.85;51.14;102128.63;5029094;28;20037;-63
2021/07/19 07:16:56;;;;;;;9.63;3.05;;;;;;;26.83;51.20;102126.16;5029277;28;20442;-63
2021/07/19 07:19:21;;;;;;;14.25;3.13;;;;;;;26.82;51.05;102137.94;5043722;28;20041;-63
2021/07/19 07:21:47;;;;;;;7.82;2.83;;;;;;;26.81;51.13;102130.91;5028127;28;20045;-63
2021/07/19 07:24:12;;;;;;;10.82;2.85;;;;;;;26.81;51.24;102135.47;5010440;28;20040;-62
2021/07/19 07:26:38;;;;;;;11.30;2.53;;;;;;;26.80;51.35;102128.44;5029095;28;20036;-65
2021/07/19 07:29:03;;;;;;;9.80;2.70;;;;;;;26.78;51.12;102128.66;5028015;28;20040;-65
2021/07/19 07:31:29;;;;;;;9.68;2.53;;;;;;;26.78;51.16;102125.97;5029226;28;20401;-64
2021/07/19 07:33:56;;;;;;;7.97;2.28;;;;;;;26.78;51.21;102128.66;5029176;28;20453;-65
2021/07/19 07:36:26;;;;;;;6.78;2.00;;;;;;;26.76;51.13;102130.72;5028053;28;20029;-63
2021/07/19 07:38:51;;;;;;;4.13;1.67;;;;;;;26.77;51.20;102128.88;5028634;28;20033;-63
2021/07/19 07:41:18;;;;;;;6.57;1.90;;;;;;;26.77;51.17;102120.78;5027349;28;20030;-63
2021/07/19 07:43:43;;;;;;;7.45;2.22;;;;;;;26.76;51.13;102122.66;4994318;28;20037;-63
2021/07/19 07:46:10;;;;;;;4.30;1.48;;;;;;;26.75;51.15;102123.69;5027008;28;20038;-63
2021/07/19 07:48:36;;;;;;;4.47;1.70;;;;;;;26.74;50.77;102121.22;5028123;28;20049;-64
2021/07/19 07:51:03;;;;;;;3.10;1.45;;;;;;;26.75;50.73;102125.56;5011421;28;20040;-64
2021/07/19 07:53:29;;;;;;;4.28;1.60;;;;;;;26.74;50.82;102124.72;5027742;28;20053;-64
2021/07/19 07:55:54;;;;;;;5.28;1.90;;;;;;;26.73;50.77;102123.09;5010667;28;20096;-64
2021/07/19 07:58:20;;;;;;;4.35;1.58;;;;;;;26.74;50.94;102122.03;5027560;28;20133;-64
2021/07/19 08:00:45;;;;;;;4.43;1.60;;;;;;;26.73;50.93;102128.47;5032377;28;20044;-63
2021/07/19 08:03:11;;;;;;;4.95;1.60;;;;;;;26.73;50.76;102124.94;5031797;28;20029;-64
2021/07/19 08:05:37;;;;;;;4.18;1.50;;;;;;;26.72;50.71;102126.00;5031734;28;20494;-64
2021/07/19 08:08:03;;;;;;;7.30;2.00;;;;;;;26.71;50.65;102124.34;5031390;28;20056;-64
2021/07/19 08:10:28;;;;;;;2.30;1.23;;;;;;;26.71;50.63;102116.28;5031231;28;20036;-64
2021/07/19 08:12:54;;;;;;;3.95;1.60;;;;;;;26.71;50.70;102119.78;5032008;28;20037;-64
2021/07/19 08:15:19;;;;;;;5.22;1.33;;;;;;;26.71;50.72;102119.78;5046589;28;20037;-64
2021/07/19 08:17:45;;;;;;;5.82;1.50;;;;;;;26.72;50.71;102123.31;5032117;28;20087;-65
2021/07/19 08:20:12;;;;;;;4.25;1.30;;;;;;;26.72;50.60;102126.81;5030140;28;20506;-63
2021/07/19 08:22:37;;;;;;;6.13;1.45;;;;;;;26.72;50.66;102120.59;5030742;28;20030;-62
2021/07/19 08:25:03;;;;;;;4.30;1.70;;;;;;;26.72;50.51;102124.13;5031902;28;20602;-62
2021/07/19 08:27:29;;;;;;;5.40;1.63;;;;;;;26.71;50.42;102127.84;5030599;28;20052;-63
2021/07/19 08:29:54;;;;;;;3.75;1.77;;;;;;;26.71;50.43;102114.41;5014137;28;20463;-62
2021/07/19 08:32:20;;;;;;;3.80;1.65;;;;;;;26.70;50.50;102117.31;5030638;28;20033;-63
2021/07/19 08:34:46;;;;;;;5.97;2.20;;;;;;;26.68;50.44;102116.69;5031652;28;20045;-66
2021/07/19 08:37:13;;;;;;;3.15;1.42;;;;;;;26.67;50.17;102113.19;5012145;28;20025;-66
2021/07/19 08:39:44;;;;;;;5.00;1.80;;;;;;;26.66;50.43;102118.75;5032354;28;20087;-66
2021/07/19 08:42:14;;;;;;;3.35;1.65;;;;;;;26.63;50.17;102111.94;5031358;28;20037;-65
2021/07/19 08:44:41;;;;;;;4.55;1.88;;;;;;;26.64;50.23;102118.13;5031751;28;20029;-65
2021/07/19 08:47:11;;;;;;;4.43;2.05;;;;;;;26.62;50.39;102117.53;5013578;28;20033;-64
2021/07/19 08:49:37;;;;;;;4.78;1.75;;;;;;;26.63;50.01;102113.78;5031071;28;20175;-65
2021/07/19 08:52:03;;;;;;;4.50;2.25;;;;;;;26.64;50.13;102110.06;5030381;28;20402;-65
2021/07/19 08:54:36;;;;;;;3.75;1.70;;;;;;;26.63;50.17;102114.63;5030621;28;20029;-66
2021/07/19 08:57:03;;;;;;;5.72;1.83;;;;;;;26.63;50.00;102103.84;5031072;28;20029;-66
2021/07/19 09:02:05;;;;;;;4.95;1.77;;;;;;;26.62;50.28;102112.16;5308093;23;20496;-66
2021/07/19 09:04:31;;;;;;;5.25;1.80;;;;;;;26.61;50.38;102108.63;5013624;28;20118;-66
2021/07/19 09:06:56;;;;;;;2.67;1.52;;;;;;;26.62;50.16;102110.28;5012862;28;20030;-66
2021/07/19 09:09:42;;;;;;;4.68;2.08;;;;;;;26.56;50.25;102105.75;5011653;28;20092;-66
2021/07/19 09:12:08;;;;;;;4.00;1.75;;;;;;;26.59;50.06;102101.81;5019007;28;20037;-66
2021/07/19 09:14:33;;;;;;;3.10;1.60;;;;;;;26.58;50.41;102100.16;5014928;28;20033;-66
2021/07/19 09:16:59;;;;;;;5.10;1.70;;;;;;;26.58;50.19;102103.69;5015173;28;20041;-66
2021/07/19 09:19:27;;;;;;;3.67;1.60;;;;;;;26.57;50.20;102096.66;5012709;28;20118;-66
2021/07/19 09:21:59;;;;;;;3.17;1.58;;;;;;;26.56;50.19;102095.00;5016261;28;20034;-66
2021/07/19 09:24:27;;;;;;;4.63;1.95;;;;;;;26.58;50.25;102100.16;5011065;28;20076;-66
2021/07/19 09:26:53;;;;;;;4.57;1.80;;;;;;;26.58;50.23;102100.16;5000012;28;20423;-66
2021/07/19 09:29:22;;;;;;;3.47;1.70;;;;;;;26.57;50.25;102096.66;5011283;28;20742;-66
2021/07/19 09:31:56;;;;;;;4.80;1.50;;;;;;;26.55;50.20;102094.16;5011224;28;20108;-66
2021/07/19 09:34:24;;;;;;;3.03;1.50;;;;;;;26.58;50.26;102092.91;5010878;28;20030;-66
2021/07/19 09:37:06;;;;;;;4.78;1.80;;;;;;;26.54;50.18;102092.53;5014254;28;20271;-66
2021/07/19 09:39:45;;;;;;;4.28;2.00;;;;;;;26.54;50.54;102092.53;5010917;28;20522;-66
2021/07/19 09:42:13;;;;;;;3.78;1.98;;;;;;;26.59;50.53;102099.13;5004670;28;20096;-66
2021/07/19 09:44:41;;;;;;;6.32;2.00;;;;;;;26.58;50.41;102098.28;5017925;28;20092;-66
2021/07/19 09:47:09;;;;;;;4.30;1.70;;;;;;;26.58;50.44;102095.59;4993056;28;20494;-66
2021/07/19 09:49:36;;;;;;;4.13;1.65;;;;;;;26.58;50.54;102090.22;5010682;28;20062;-67
2021/07/19 09:52:09;;;;;;;4.93;2.05;;;;;;;26.58;50.74;102092.91;5017279;28;20041;-66
2021/07/19 09:54:36;;;;;;;4.40;2.10;;;;;;;26.59;50.69;102088.34;5010316;28;20034;-68
2021/07/19 09:57:02;;;;;;;5.22;2.30;;;;;;;26.58;50.66;102089.41;5017685;28;20104;-66
2021/07/19 09:59:28;;;;;;;4.25;1.85;;;;;;;26.58;50.58;102090.22;5022048;28;20466;-66
2021/07/19 10:01:53;;;;;;;2.75;1.73;;;;;;;26.58;50.69;102092.09;5023654;28;20049;-66
2021/07/19 10:04:20;;;;;;;3.75;2.30;;;;;;;26.57;50.83;102091.25;5010340;28;20045;-64
2021/07/19 10:06:48;;;;;;;3.50;2.03;;;;;;;26.57;50.74;102080.50;5009054;28;20061;-65
2021/07/19 10:09:15;;;;;;;4.72;2.10;;;;;;;26.58;50.84;102087.53;5010800;28;20037;-65
2021/07/19 10:11:46;;;;;;;7.53;2.28;;;;;;;26.58;51.16;102075.94;5020538;28;20112;-64
2021/07/19 10:14:12;;;;;;;5.50;2.03;;;;;;;26.58;50.98;102084.00;5010297;28;20029;-65
2021/07/19 10:16:39;;;;;;;8.32;2.30;;;;;;;26.56;51.09;102082.38;5010331;28;20281;-65
2021/07/19 10:19:05;;;;;;;10.90;3.15;;;;;;;26.56;51.16;102079.66;4992875;28;20040;-66
2021/07/19 10:21:34;;;;;;;6.15;2.05;;;;;;;26.58;51.23;102084.84;5016339;28;20041;-66
2021/07/19 10:24:02;;;;;;;6.35;1.90;;;;;;;26.57;51.53;102077.81;5012082;28;20043;-70
2021/07/19 10:26:28;;;;;;;10.90;2.70;;;;;;;26.58;51.73;102078.63;5009714;28;20113;-69
2021/07/19 10:28:55;;;;;;;11.63;2.60;;;;;;;26.59;52.01;102082.97;5020107;28;20045;-66
2021/07/19 10:31:21;;;;;;;6.57;2.05;;;;;;;26.58;52.19;102079.47;4992261;28;20030;-65
2021/07/19 10:33:48;;;;;;;8.48;2.33;;;;;;;26.59;52.42;102072.22;5010370;28;20048;-66
2021/07/19 10:36:21;;;;;;;7.80;2.30;;;;;;;26.57;52.03;102075.13;5002226;28;20026;-66
2021/07/19 10:38:49;;;;;;;5.53;2.47;;;;;;;26.59;52.21;102080.28;4992039;28;20025;-66
2021/07/19 10:41:20;;;;;;;5.70;2.63;;;;;;;26.57;52.16;102072.41;5011336;28;20026;-66
2021/07/19 10:43:46;;;;;;;5.90;2.47;;;;;;;26.56;51.91;102068.09;5017691;28;20088;-65
2021/07/19 10:46:12;;;;;;;5.07;2.40;;;;;;;26.56;51.91;102074.28;4991979;28;20081;-65
2021/07/19 10:48:38;;;;;;;5.60;2.83;;;;;;;26.58;52.19;102070.56;5009307;28;20053;-64
2021/07/19 10:51:21;;;;;;;4.97;2.70;;;;;;;26.54;52.74;102072.84;5009919;28;20102;-64
2021/07/19 10:53:47;;;;;;;7.50;2.70;;;;;;;26.58;52.75;102065.19;5000277;28;20025;-64
2021/07/19 10:56:14;;;;;;;6.10;2.88;;;;;;;26.59;53.10;102067.66;5009105;28;20037;-64
2021/07/19 10:58:45;;;;;;;5.68;2.50;;;;;;;26.61;53.16;102068.25;5009335;28;20042;-64
2021/07/19 11:01:28;;;;;;;4.45;2.35;;;;;;;26.58;53.08;102068.69;5012053;28;20054;-64
2021/07/19 11:03:56;;;;;;;10.57;3.70;;;;;;;26.62;53.25;102067.22;5001423;28;20068;-64
2021/07/19 11:06:47;;;;;;;5.90;2.80;;;;;;;26.59;53.25;102061.44;5016992;28;20080;-64
2021/07/19 11:09:13;;;;;;;6.53;3.38;;;;;;;26.62;52.87;102056.44;5001178;28;20040;-64
2021/07/19 11:11:42;;;;;;;9.68;4.20;;;;;;;26.63;53.14;102049.19;5001573;28;20038;-70
2021/07/19 11:14:22;;;;;;;9.38;3.60;;;;;;;26.60;53.14;102045.06;5006627;28;20034;-65
2021/07/19 11:16:53;;;;;;;10.82;4.25;;;;;;;26.64;53.01;102045.47;5009087;28;20045;-66
2021/07/19 11:19:36;;;;;;;6.63;3.55;;;;;;;26.64;53.00;102057.06;5019874;28;20137;-65
2021/07/19 11:22:18;;;;;;;6.00;3.40;;;;;;;26.64;52.75;102051.69;5008487;28;20127;-66
2021/07/19 11:24:49;;;;;;;6.28;3.70;;;;;;;26.69;52.92;102053.75;5009506;28;20482;-65
2021/07/19 11:27:22;;;;;;;6.13;3.50;;;;;;;26.68;52.67;102047.53;4991501;28;20026;-65
2021/07/19 11:29:58;;;;;;;5.93;3.33;;;;;;;26.64;52.65;102048.16;5019512;28;20026;-65
2021/07/19 11:32:31;;;;;;;7.18;3.38;;;;;;;26.64;52.55;102042.78;5008847;28;20160;-65
2021/07/19 11:35:17;;;;;;;11.50;3.53;;;;;;;26.62;52.28;102039.47;5001931;28;20065;-65
2021/07/19 11:37:45;;;;;;;8.45;3.28;;;;;;;26.65;51.99;102044.44;5021799;28;20050;-65
2021/07/19 11:40:12;;;;;;;6.47;2.83;;;;;;;26.65;52.20;102036.34;5020358;28;20084;-65
2021/07/19 11:42:44;;;;;;;5.95;2.95;;;;;;;26.62;52.15;102037.59;4997995;28;20038;-65
2021/07/19 11:45:10;;;;;;;5.00;2.80;;;;;;;26.64;51.76;102042.78;5003172;28;20038;-65
2021/07/19 11:48:04;;;;;;;6.35;2.95;;;;;;;26.59;51.72;102040.72;5012190;28;20105;-66
2021/07/19 11:50:30;;;;;;;4.93;2.67;;;;;;;26.62;51.65;102040.31;5005189;28;20228;-66
2021/07/19 11:52:56;;;;;;;5.85;2.63;;;;;;;26.63;51.42;102038.44;5021816;28;20141;-65
2021/07/19 11:55:24;;;;;;;5.68;2.50;;;;;;;26.63;51.26;102035.75;5012953;28;20060;-66
2021/07/19 11:57:58;;;;;;;5.72;2.92;;;;;;;26.61;51.16;102040.50;5012388;28;20060;-66
2021/07/19 12:00:26;;;;;;;4.40;2.50;;;;;;;26.60;50.96;102042.38;5010986;28;20034;-65
2021/07/19 12:03:15;;;;;;;3.88;2.20;;;;;;;26.55;51.13;102039.53;5020873;28;20038;-65
2021/07/19 12:05:50;;;;;;;3.55;2.08;;;;;;;26.56;50.91;102043.84;5006649;28;20034;-65
2021/07/19 12:08:23;;;;;;;6.32;2.30;;;;;;;26.57;50.58;102037.44;5007510;28;20040;-66
2021/07/19 12:10:48;;;;;;;4.20;2.40;;;;;;;26.56;50.52;102038.47;5009667;28;20041;-66
2021/07/19 12:13:16;;;;;;;4.30;2.45;;;;;;;26.56;50.68;102030.41;5008153;28;20047;-66
2021/07/19 12:15:55;;;;;;;4.90;2.30;;;;;;;26.53;50.36;102036.22;5022093;28;20062;-65
2021/07/19 12:18:35;;;;;;;3.60;2.55;;;;;;;26.52;50.52;102037.25;5012079;28;20065;-65
2021/07/19 12:21:13;;;;;;;5.55;2.63;;;;;;;26.52;50.40;102032.69;5013260;28;20033;-65
2021/07/19 12:24:00;;;;;;;4.05;2.38;;;;;;;26.49;50.67;102029.59;5016666;28;20037;-66
2021/07/19 12:26:31;;;;;;;4.03;2.30;;;;;;;26.50;50.52;102032.06;5007354;28;20482;-65
2021/07/19 12:29:08;;;;;;;4.80;2.60;;;;;;;26.49;50.44;102033.09;5015712;28;20041;-65
2021/07/19 12:31:43;;;;;;;5.22;2.08;;;;;;;26.46;50.45;102036.22;5008383;28;20479;-65
2021/07/19 12:34:09;;;;;;;2.78;1.88;;;;;;;26.48;50.59;102030.63;5014909;28;20034;-65
2021/07/19 12:36:36;;;;;;;4.93;2.40;;;;;;;26.49;50.69;102034.97;5011350;28;20057;-66
2021/07/19 12:39:14;;;;;;;4.40;2.13;;;;;;;26.43;50.58;102031.28;5011777;28;20034;-66
2021/07/19 12:41:41;;;;;;;4.93;2.42;;;;;;;26.46;50.67;102030.03;5004334;28;20519;-66
2021/07/19 12:44:09;;;;;;;5.28;2.42;;;;;;;26.45;50.65;102039.97;5012166;28;20114;-66
2021/07/19 12:46:39;;;;;;;4.65;2.20;;;;;;;26.44;50.94;102032.09;5021499;28;20065;-66
2021/07/19 12:49:05;;;;;;;5.75;2.33;;;;;;;26.45;50.85;102036.44;5011845;28;20034;-66
2021/07/19 12:51:31;;;;;;;5.25;2.10;;;;;;;26.45;51.34;102033.75;5021839;28;20030;-67
2021/07/19 12:54:01;;;;;;;4.03;2.30;;;;;;;26.45;51.39;102031.06;5011319;28;20457;-66
2021/07/19 12:56:28;;;;;;;4.43;2.25;;;;;;;26.45;51.19;102031.06;5021386;28;20033;-66
2021/07/19 12:58:58;;;;;;;3.17;2.30;;;;;;;26.44;51.14;102029.41;5018000;28;20160;-67
2021/07/19 13:01:37;;;;;;;3.67;2.10;;;;;;;26.43;51.54;102027.75;5028310;28;20132;-66
2021/07/19 13:04:09;;;;;;;5.13;2.72;;;;;;;26.41;51.50;102035.22;5005976;28;20053;-66
2021/07/19 13:06:36;;;;;;;4.43;2.10;;;;;;;26.41;51.62;102027.16;5016464;28;20351;-66
2021/07/19 13:09:20;;;;;;;4.82;2.58;;;;;;;26.41;51.80;102025.28;5010759;28;20038;-67
2021/07/19 13:11:45;;;;;;;4.45;2.50;;;;;;;26.40;51.60;102025.50;5021115;28;20116;-67
2021/07/19 13:14:12;;;;;;;4.97;2.63;;;;;;;26.41;51.95;102024.47;5011416;28;20157;-67
2021/07/19 13:16:38;;;;;;;4.18;2.40;;;;;;;26.40;51.89;102018.25;5011543;28;20149;-67
2021/07/19 13:19:04;;;;;;;4.05;2.55;;;;;;;26.41;51.88;102024.47;5012422;28;20069;-67
2021/07/19 13:21:30;;;;;;;3.72;2.50;;;;;;;26.40;51.97;102022.81;5019857;28;20045;-66
2021/07/19 13:23:55;;;;;;;3.53;2.30;;;;;;;26.40;51.85;102028.19;4992936;28;20028;-66
2021/07/19 13:26:21;;;;;;;4.43;2.70;;;;;;;26.40;52.13;102020.13;5003616;28;20038;-66
2021/07/19 13:28:46;;;;;;;5.25;3.00;;;;;;;26.38;52.28;102009.56;5010439;28;20037;-66
2021/07/19 13:31:12;;;;;;;4.93;2.65;;;;;;;26.39;52.27;102015.78;4996742;28;20037;-66
2021/07/19 13:33:43;;;;;;;4.75;2.60;;;;;;;26.37;52.49;102010.63;5018147;28;20042;-66
2021/07/19 13:36:10;;;;;;;5.40;2.38;;;;;;;26.39;52.52;102010.41;4994760;28;20037;-66
2021/07/19 13:38:41;;;;;;;3.20;2.72;;;;;;;26.40;52.48;102007.50;5018473;28;20038;-66
2021/07/19 13:41:07;;;;;;;3.72;2.58;;;;;;;26.39;52.39;102005.84;5021261;28;20654;-66
2021/07/19 13:43:41;;;;;;;3.72;2.65;;;;;;;26.37;52.75;102009.78;4993383;28;20116;-66
2021/07/19 13:46:07;;;;;;;4.55;2.72;;;;;;;26.40;52.54;102007.50;4992506;28;20111;-66
2021/07/19 13:48:33;;;;;;;4.00;2.40;;;;;;;26.40;52.57;102007.50;4992987;28;20041;-66
2021/07/19 13:51:03;;;;;;;3.78;2.53;;;;;;;26.42;52.51;102012.66;5010467;28;20097;-66
2021/07/19 13:53:29;;;;;;;3.92;2.22;;;;;;;26.42;52.64;102009.97;5010011;28;20026;-66
2021/07/19 13:56:04;;;;;;;4.50;2.40;;;;;;;26.41;52.80;102008.31;5020458;28;20041;-66
2021/07/19 13:58:30;;;;;;;4.50;2.47;;;;;;;26.43;52.90;102011.63;5013053;28;20041;-65
2021/07/19 14:01:01;;;;;;;4.05;2.47;;;;;;;26.42;52.95;102008.09;5027745;28;20034;-66
2021/07/19 14:03:27;;;;;;;3.17;2.30;;;;;;;26.43;52.94;102008.94;5015666;28;20492;-66
2021/07/19 14:05:52;;;;;;;4.15;2.50;;;;;;;26.43;53.15;102006.25;5022046;28;20077;-67
2021/07/19 14:08:18;;;;;;;3.35;2.25;;;;;;;26.42;53.01;102005.41;5022824;28;20087;-67
2021/07/19 14:10:44;;;;;;;3.55;2.38;;;;;;;26.43;53.11;102000.84;5012840;28;20387;-66
2021/07/19 14:13:11;;;;;;;2.85;2.20;;;;;;;26.44;53.12;102005.19;5017749;28;20042;-66
2021/07/19 14:15:37;;;;;;;2.67;2.00;;;;;;;26.45;53.21;101999.59;5011024;28;20034;-66
2021/07/19 14:18:03;;;;;;;3.88;1.98;;;;;;;26.44;53.13;101999.81;5019228;28;20120;-67
2021/07/19 14:20:30;;;;;;;3.88;2.22;;;;;;;26.45;53.19;102004.16;4992715;28;20452;-67
2021/07/19 14:22:56;;;;;;;3.17;1.90;;;;;;;26.45;53.24;101996.09;5014190;28;20056;-66
2021/07/19 14:25:23;;;;;;;4.38;2.38;;;;;;;26.45;53.19;102001.47;5015392;28;20116;-67
2021/07/19 14:27:49;;;;;;;3.30;2.22;;;;;;;26.45;53.19;101996.09;5012812;28;20030;-67
2021/07/19 14:30:16;;;;;;;3.72;1.90;;;;;;;26.45;53.38;101990.69;5017246;28;20105;-66
2021/07/19 14:32:43;;;;;;;3.25;1.92;;;;;;;26.45;53.46;101994.22;4991632;28;20030;-67
2021/07/19 14:35:11;;;;;;;3.63;1.80;;;;;;;26.44;53.58;101989.06;5009755;28;20048;-66
2021/07/19 14:37:38;;;;;;;2.92;2.08;;;;;;;26.44;53.39;101989.88;5008657;28;20030;-66
2021/07/19 14:40:05;;;;;;;2.90;1.92;;;;;;;26.45;53.74;101983.47;5015795;28;20056;-66
2021/07/19 14:42:31;;;;;;;2.90;1.95;;;;;;;26.44;53.46;101978.28;5013699;28;20081;-66
2021/07/19 14:44:56;;;;;;;2.85;2.00;;;;;;;26.44;53.47;101987.19;5013650;28;20057;-66
2021/07/19 14:47:22;;;;;;;3.03;1.85;;;;;;;26.44;53.55;101983.66;5015732;28;20036;-66
2021/07/19 14:49:47;;;;;;;3.58;2.00;;;;;;;26.44;53.55;101981.81;5009070;28;20038;-67
2021/07/19 14:52:13;;;;;;;2.53;1.70;;;;;;;26.45;53.56;101982.63;5008884;28;20045;-66
2021/07/19 14:54:38;;;;;;;3.33;2.10;;;;;;;26.44;53.53;101986.38;5009619;28;20036;-66
2021/07/19 14:57:05;;;;;;;3.85;2.03;;;;;;;26.44;53.64;101980.97;5019136;28;20034;-66
2021/07/19 14:59:30;;;;;;;3.55;2.10;;;;;;;26.42;53.49;101978.50;4991941;28;20068;-66
2021/07/19 15:01:55;;;;;;;3.40;1.80;;;;;;;26.43;53.53;101982.84;5019908;28;20476;-67
2021/07/19 15:04:21;;;;;;;2.42;1.83;;;;;;;26.44;53.55;101991.75;4992053;28;20169;-66
2021/07/19 15:06:46;;;;;;;2.55;1.42;;;;;;;26.42;53.69;101978.50;5007977;28;20550;-66
2021/07/19 15:09:12;;;;;;;3.60;1.70;;;;;;;26.43;53.63;101987.41;5016642;28;20034;-65
2021/07/19 15:11:37;;;;;;;2.53;1.65;;;;;;;26.42;53.85;101980.38;5026168;28;20041;-65
2021/07/19 15:14:03;;;;;;;2.67;1.70;;;;;;;26.43;53.55;101982.03;5015898;28;20088;-66
2021/07/19 15:16:30;;;;;;;3.38;1.63;;;;;;;26.43;53.48;101976.63;5016069;28;20032;-65
2021/07/19 15:18:55;;;;;;;2.55;1.60;;;;;;;26.43;53.54;101984.72;5025787;28;20045;-66
2021/07/19 15:21:21;;;;;;;3.85;1.90;;;;;;;26.42;53.63;101975.81;5021363;28;20033;-66
2021/07/19 15:23:46;;;;;;;3.75;1.80;;;;;;;26.43;53.40;101973.94;5019694;28;20034;-66
2021/07/19 15:26:12;;;;;;;3.33;1.70;;;;;;;26.42;53.61;101962.38;4997933;28;20058;-66
2021/07/19 15:28:37;;;;;;;3.10;1.67;;;;;;;26.45;53.49;101969.19;4998529;28;20041;-65
2021/07/19 15:31:02;;;;;;;3.05;1.70;;;;;;;26.44;53.69;101976.44;4999531;28;20041;-66
2021/07/19 15:33:28;;;;;;;4.55;1.58;;;;;;;26.46;53.48;101970.81;5024001;28;20029;-66
2021/07/19 15:35:53;;;;;;;3.35;1.77;;;;;;;26.46;53.47;101968.13;5014957;28;20054;-66
2021/07/19 15:38:19;;;;;;;4.07;1.48;;;;;;;26.47;53.37;101967.91;5020537;28;20033;-66
2021/07/19 15:40:44;;;;;;;3.92;1.40;;;;;;;26.47;53.40;101965.22;5020363;28;20057;-66
2021/07/19 15:43:11;;;;;;;2.75;1.65;;;;;;;26.48;53.46;101966.06;5015410;28;20120;-66
2021/07/19 15:45:36;;;;;;;2.28;1.35;;;;;;;26.48;53.32;101963.34;5025903;28;20074;-66
2021/07/19 15:48:02;;;;;;;3.22;1.50;;;;;;;26.48;53.26;101961.50;4999592;28;20487;-66
2021/07/19 15:50:28;;;;;;;8.20;2.08;;;;;;;26.48;53.16;101964.19;5024432;28;20387;-66
2021/07/19 15:52:53;;;;;;;4.55;1.50;;;;;;;26.50;53.42;101955.88;5014346;28;20029;-66
2021/07/19 15:55:19;;;;;;;4.07;1.60;;;;;;;26.50;53.15;101956.72;5015867;28;20040;-66
2021/07/19 15:57:44;;;;;;;3.65;1.67;;;;;;;26.51;53.12;101950.31;4997301;28;20049;-67
2021/07/19 16:00:11;;;;;;;2.50;1.60;;;;;;;26.51;53.09;101944.94;5029044;28;20042;-66
2021/07/19 16:02:36;;;;;;;3.83;1.73;;;;;;;26.52;53.16;101946.59;5033662;28;20449;-66
2021/07/19 16:05:03;;;;;;;2.90;1.80;;;;;;;26.51;52.93;101944.09;5019339;28;20129;-66
2021/07/19 16:07:29;;;;;;;2.97;1.42;;;;;;;26.51;53.16;101939.56;5014138;28;20026;-66
2021/07/19 16:09:54;;;;;;;2.08;1.42;;;;;;;26.49;53.06;101935.41;5018331;28;20072;-66
2021/07/19 16:12:21;;;;;;;2.55;1.50;;;;;;;26.49;53.01;101940.78;5024630;28;20053;-67
2021/07/19 16:14:46;;;;;;;3.95;1.60;;;;;;;26.49;53.06;101940.78;5015432;28;20034;-66
2021/07/19 16:17:13;;;;;;;2.50;1.48;;;;;;;26.50;52.92;101942.44;5014146;28;20356;-66
2021/07/19 16:19:38;;;;;;;2.45;1.50;;;;;;;26.49;53.04;101935.41;5023827;28;20041;-66
2021/07/19 16:22:05;;;;;;;2.03;1.30;;;;;;;26.50;53.03;101928.97;5010810;28;20033;-66
2021/07/19 16:24:30;;;;;;;2.88;1.65;;;;;;;26.50;52.86;101939.75;5005073;28;20034;-66
2021/07/19 16:26:57;;;;;;;2.55;1.30;;;;;;;26.50;53.09;101947.81;4997746;28;20034;-67
2021/07/19 16:29:23;;;;;;;1.95;1.30;;;;;;;26.49;52.81;101938.09;4993542;28;20133;-66
2021/07/19 16:31:48;;;;;;;3.88;2.05;;;;;;;26.49;52.99;101933.53;5011009;28;20038;-66
2021/07/19 16:34:14;;;;;;;3.33;1.50;;;;;;;26.49;53.04;101933.53;5020156;28;20048;-67
2021/07/19 16:36:39;;;;;;;2.83;1.67;;;;;;;26.50;52.80;101943.25;5011459;28;20041;-66
2021/07/19 16:39:05;;;;;;;3.58;1.70;;;;;;;26.48;52.83;101931.91;5010411;28;20088;-66
2021/07/19 16:41:31;;;;;;;2.97;1.60;;;;;;;26.48;52.77;101939.13;5020939;28;20026;-66
2021/07/19 16:43:56;;;;;;;4.90;1.58;;;;;;;26.50;52.78;101937.06;4993621;28;20038;-66
2021/07/19 16:46:22;;;;;;;2.88;1.60;;;;;;;26.49;52.93;101935.41;5012937;28;20151;-67
2021/07/19 16:48:47;;;;;;;3.75;1.60;;;;;;;26.49;52.78;101938.09;5020112;28;20144;-66
2021/07/19 16:51:13;;;;;;;4.43;1.58;;;;;;;26.50;52.78;101931.69;5010363;28;20033;-65
2021/07/19 16:53:38;;;;;;;2.45;1.42;;;;;;;26.48;52.69;101936.44;5019143;28;20033;-66
2021/07/19 16:56:04;;;;;;;3.08;1.45;;;;;;;26.44;52.54;101932.56;5010894;28;20388;-65
2021/07/19 16:58:29;;;;;;;3.13;1.77;;;;;;;26.43;52.92;101925.53;4996302;28;20029;-66
2021/07/19 17:00:55;;;;;;;4.90;1.85;;;;;;;26.42;52.41;101923.88;5028658;28;20072;-65
2021/07/19 17:03:20;;;;;;;2.30;1.58;;;;;;;26.40;52.57;101924.09;5028319;28;20476;-65
2021/07/19 17:05:46;;;;;;;2.55;1.50;;;;;;;26.41;52.52;101923.03;5017793;28;20467;-65
2021/07/19 17:08:12;;;;;;;2.95;1.95;;;;;;;26.42;52.59;101924.69;4998788;28;20042;-65
2021/07/19 17:10:38;;;;;;;2.10;1.63;;;;;;;26.44;52.77;101925.31;5012341;28;20029;-65
2021/07/19 17:13:04;;;;;;;2.22;1.52;;;;;;;26.46;52.59;101927.78;5000646;28;20029;-65
2021/07/19 17:15:29;;;;;;;3.13;1.75;;;;;;;26.47;52.69;101929.41;5010221;28;20045;-65
2021/07/19 17:17:55;;;;;;;2.65;1.67;;;;;;;26.47;52.55;101926.72;5016048;28;20048;-65
2021/07/19 17:20:27;;;;;;;4.25;1.60;;;;;;;26.47;52.54;101924.03;5014598;28;20049;-65
2021/07/19 17:22:52;;;;;;;2.28;1.40;;;;;;;26.47;52.52;101915.97;5009386;28;20034;-65
2021/07/19 17:25:22;;;;;;;2.20;1.60;;;;;;;26.48;52.58;101914.94;5009803;28;20541;-65
2021/07/19 17:27:48;;;;;;;2.75;1.40;;;;;;;26.49;52.65;101916.56;5018029;28;20497;-65
2021/07/19 17:30:15;;;;;;;2.60;1.65;;;;;;;26.50;52.64;101915.53;5010657;28;20037;-66
2021/07/19 17:32:41;;;;;;;3.20;1.55;;;;;;;26.50;52.63;101907.47;5002077;28;20452;-66
2021/07/19 17:35:10;;;;;;;3.08;1.63;;;;;;;26.51;52.26;101909.97;4992654;28;20062;-65
2021/07/19 17:37:36;;;;;;;2.15;1.50;;;;;;;26.52;52.70;101905.41;5009166;28;20092;-65
2021/07/19 17:40:03;;;;;;;3.22;1.80;;;;;;;26.53;52.47;101901.66;5010751;28;20030;-65
2021/07/19 17:42:29;;;;;;;2.72;1.35;;;;;;;26.53;52.27;101898.97;5008174;28;20042;-65
2021/07/19 17:44:54;;;;;;;3.50;1.50;;;;;;;26.53;52.43;101898.97;4992767;28;20061;-65
2021/07/19 17:47:20;;;;;;;4.20;1.80;;;;;;;26.53;52.27;101898.97;5009913;28;20533;-65
2021/07/19 17:49:46;;;;;;;2.10;1.40;;;;;;;26.52;52.17;101898.16;4992481;28;20124;-66
2021/07/19 17:52:12;;;;;;;3.67;1.75;;;;;;;26.51;52.16;101896.50;5008996;28;20117;-66
2021/07/19 17:54:37;;;;;;;2.35;1.50;;;;;;;26.52;52.01;101891.94;4992525;28;20045;-66
2021/07/19 17:57:03;;;;;;;3.58;1.70;;;;;;;26.53;52.13;101893.59;5009935;28;20049;-66
2021/07/19 17:59:29;;;;;;;2.92;1.48;;;;;;;26.54;52.00;101896.06;5014149;28;20137;-66
2021/07/19 18:01:54;;;;;;;1.98;1.45;;;;;;;26.55;51.72;101894.19;5003657;28;20217;-66
2021/07/19 18:04:20;;;;;;;4.93;1.75;;;;;;;26.56;51.88;101902.06;5019281;28;20482;-65
2021/07/19 18:06:45;;;;;;;3.40;1.40;;;;;;;26.57;51.89;101884.03;5006372;28;20579;-65
2021/07/19 18:09:11;;;;;;;2.97;1.30;;;;;;;26.58;51.90;101892.94;5010795;28;20333;-62
2021/07/19 18:11:36;;;;;;;3.47;1.60;;;;;;;26.60;51.90;101882.78;5017206;28;20120;-61
2021/07/19 18:14:03;;;;;;;2.50;1.40;;;;;;;26.60;51.99;101888.16;5006283;28;20038;-62
2021/07/19 18:16:29;;;;;;;5.75;1.45;;;;;;;26.62;52.08;101888.75;4988668;28;20042;-61